sensor_id;sensor_type;location;lat;lon;timestamp;temperature;humidity
64549;DHT22;49838;51.798;10.954;2023-04-25T00:00:03;14.60;29.90
64549;DHT22;49838;51.798;10.954;2023-04-25T00:02:32;14.60;29.90
64549;DHT22;49838;51.798;10.954;2023-04-25T00:05:00;14.50;29.80
64549;DHT22;49838;51.798;10.954;2023-04-25T00:07:29;14.50;30.00
64549;DHT22;49838;51.798;10.954;2023-04-25T00:09:57;14.50;30.00
64549;DHT22;49838;51.798;10.954;2023-04-25T00:12:24;14.40;30.00
64549;DHT22;49838;51.798;10.954;2023-04-25T00:14:54;14.40;30.10
64549;DHT22;49838;51.798;10.954;2023-04-25T00:17:22;14.30;30.10
64549;DHT22;49838;51.798;10.954;2023-04-25T00:19:50;14.30;30.10
64549;DHT22;49838;51.798;10.954;2023-04-25T00:22:18;14.20;30.10
64549;DHT22;49838;51.798;10.954;2023-04-25T00:24:47;14.20;30.20
64549;DHT22;49838;51.798;10.954;2023-04-25T00:27:14;14.10;30.20
64549;DHT22;49838;51.798;10.954;2023-04-25T00:29:42;14.10;30.10
64549;DHT22;49838;51.798;10.954;2023-04-25T00:32:09;14.10;30.10
64549;DHT22;49838;51.798;10.954;2023-04-25T15:41:16;12.30;32.80
64549;DHT22;49838;51.798;10.954;2023-04-25T15:43:45;12.10;33.20
64549;DHT22;49838;51.798;10.954;2023-04-25T15:46:13;12.40;33.00
64549;DHT22;49838;51.798;10.954;2023-04-25T15:48:40;12.90;32.70
64549;DHT22;49838;51.798;10.954;2023-04-25T15:51:08;13.50;32.10
64549;DHT22;49838;51.798;10.954;2023-04-25T15:53:36;14.00;31.50
64549;DHT22;49838;51.798;10.954;2023-04-25T15:56:03;14.40;31.10
64549;DHT22;49838;51.798;10.954;2023-04-25T15:58:32;14.80;30.80
64549;DHT22;49838;51.798;10.954;2023-04-25T16:01:01;15.10;30.40
64549;DHT22;49838;51.798;10.954;2023-04-25T16:03:29;15.30;30.10
64549;DHT22;49838;51.798;10.954;2023-04-25T16:05:57;15.50;30.00
64549;DHT22;49838;51.798;10.954;2023-04-25T16:08:25;15.70;29.80
64549;DHT22;49838;51.798;10.954;2023-04-25T16:10:54;15.80;29.70
64549;DHT22;49838;51.798;10.954;2023-04-25T16:13:25;16.00;29.60
64549;DHT22;49838;51.798;10.954;2023-04-25T16:16:04;16.10;29.50
64549;DHT22;49838;51.798;10.954;2023-04-25T16:18:32;16.20;29.50
64549;DHT22;49838;51.798;10.954;2023-04-25T16:21:03;16.20;29.40
64549;DHT22;49838;51.798;10.954;2023-04-25T16:23:30;16.20;29.30
64549;DHT22;49838;51.798;10.954;2023-04-25T16:25:58;16.20;29.40
64549;DHT22;49838;51.798;10.954;2023-04-25T16:28:25;16.20;29.40
64549;DHT22;49838;51.798;10.954;2023-04-25T16:30:53;16.10;29.60
64549;DHT22;49838;51.798;10.954;2023-04-25T16:33:24;15.90;29.50
64549;DHT22;49838;51.798;10.954;2023-04-25T16:35:52;15.80;29.60
64549;DHT22;49838;51.798;10.954;2023-04-25T16:38:19;15.70;30.30
64549;DHT22;49838;51.798;10.954;2023-04-25T16:40:47;15.60;30.00
64549;DHT22;49838;51.798;10.954;2023-04-25T16:43:14;15.50;30.10
64549;DHT22;49838;51.798;10.954;2023-04-25T16:45:44;15.30;30.30
64549;DHT22;49838;51.798;10.954;2023-04-25T16:48:12;15.20;30.30
64549;DHT22;49838;51.798;10.954;2023-04-25T16:50:43;15.10;30.20
64549;DHT22;49838;51.798;10.954;2023-04-25T16:53:11;15.10;30.30
64549;DHT22;49838;51.798;10.954;2023-04-25T16:55:38;15.10;30.40
64549;DHT22;49838;51.798;10.954;2023-04-25T16:58:08;15.00;30.40
64549;DHT22;49838;51.798;10.954;2023-04-25T17:00:37;14.90;30.30
64549;DHT22;49838;51.798;10.954;2023-04-25T17:03:04;14.90;30.60
64549;DHT22;49838;51.798;10.954;2023-04-25T17:05:32;14.90;30.60
64549;DHT22;49838;51.798;10.954;2023-04-25T17:08:01;14.90;30.50
64549;DHT22;49838;51.798;10.954;2023-04-25T17:10:28;14.90;30.50
64549;DHT22;49838;51.798;10.954;2023-04-25T17:12:57;15.00;30.50
64549;DHT22;49838;51.798;10.954;2023-04-25T17:15:24;15.00;30.70
64549;DHT22;49838;51.798;10.954;2023-04-25T17:17:52;15.10;30.60
64549;DHT22;49838;51.798;10.954;2023-04-25T17:20:19;15.10;30.50
64549;DHT22;49838;51.798;10.954;2023-04-25T17:22:47;15.20;30.80
64549;DHT22;49838;51.798;10.954;2023-04-25T17:25:15;15.20;30.60
64549;DHT22;49838;51.798;10.954;2023-04-25T17:27:43;15.10;30.40
64549;DHT22;49838;51.798;10.954;2023-04-25T17:30:11;15.10;30.40
64549;DHT22;49838;51.798;10.954;2023-04-25T17:32:38;15.00;30.40
64549;DHT22;49838;51.798;10.954;2023-04-25T17:35:06;14.80;30.30
64549;DHT22;49838;51.798;10.954;2023-04-25T17:37:34;14.90;30.40
64549;DHT22;49838;51.798;10.954;2023-04-25T17:40:01;14.80;30.30
64549;DHT22;49838;51.798;10.954;2023-04-25T17:42:31;14.80;30.40
64549;DHT22;49838;51.798;10.954;2023-04-25T17:44:58;14.70;30.40
64549;DHT22;49838;51.798;10.954;2023-04-25T17:47:28;14.70;30.40
64549;DHT22;49838;51.798;10.954;2023-04-25T17:49:55;14.70;31.10
64549;DHT22;49838;51.798;10.954;2023-04-25T17:52:23;14.80;30.50
64549;DHT22;49838;51.798;10.954;2023-04-25T17:54:53;14.80;31.00
64549;DHT22;49838;51.798;10.954;2023-04-25T17:57:20;14.70;31.10
64549;DHT22;49838;51.798;10.954;2023-04-25T17:59:51;14.60;30.80
64549;DHT22;49838;51.798;10.954;2023-04-25T18:02:19;14.40;30.60
64549;DHT22;49838;51.798;10.954;2023-04-25T18:04:46;14.40;30.60
64549;DHT22;49838;51.798;10.954;2023-04-25T18:07:14;14.40;30.50
64549;DHT22;49838;51.798;10.954;2023-04-25T18:09:43;14.40;30.40
64549;DHT22;49838;51.798;10.954;2023-04-25T18:12:11;14.50;30.30
64549;DHT22;49838;51.798;10.954;2023-04-25T18:14:40;14.50;30.30
64549;DHT22;49838;51.798;10.954;2023-04-25T18:17:08;14.50;30.20
64549;DHT22;49838;51.798;10.954;2023-04-25T18:19:37;14.50;30.20
64549;DHT22;49838;51.798;10.954;2023-04-25T18:22:04;14.40;30.20
64549;DHT22;49838;51.798;10.954;2023-04-25T18:24:31;14.40;30.30
64549;DHT22;49838;51.798;10.954;2023-04-25T18:26:59;14.30;30.30
64549;DHT22;49838;51.798;10.954;2023-04-25T18:29:27;14.30;30.70
64549;DHT22;49838;51.798;10.954;2023-04-25T18:32:01;14.20;31.30
64549;DHT22;49838;51.798;10.954;2023-04-25T18:34:32;13.90;31.10
64549;DHT22;49838;51.798;10.954;2023-04-25T18:37:00;13.80;31.10
64549;DHT22;49838;51.798;10.954;2023-04-25T18:39:27;13.70;31.00
64549;DHT22;49838;51.798;10.954;2023-04-25T18:41:57;13.60;30.90
64549;DHT22;49838;51.798;10.954;2023-04-25T18:44:24;13.50;30.80
64549;DHT22;49838;51.798;10.954;2023-04-25T18:46:52;13.50;30.70
64549;DHT22;49838;51.798;10.954;2023-04-25T18:49:20;13.50;30.70
64549;DHT22;49838;51.798;10.954;2023-04-25T18:51:49;13.40;30.50
64549;DHT22;49838;51.798;10.954;2023-04-25T18:54:20;13.40;30.50
64549;DHT22;49838;51.798;10.954;2023-04-25T18:56:48;13.30;30.40
64549;DHT22;49838;51.798;10.954;2023-04-25T18:59:16;13.30;30.40
64549;DHT22;49838;51.798;10.954;2023-04-25T19:01:43;13.30;30.30
64549;DHT22;49838;51.798;10.954;2023-04-25T19:04:14;13.30;30.20
64549;DHT22;49838;51.798;10.954;2023-04-25T19:06:42;13.30;30.20
64549;DHT22;49838;51.798;10.954;2023-04-25T19:09:15;13.30;30.20
64549;DHT22;49838;51.798;10.954;2023-04-25T19:11:43;13.30;30.10
64549;DHT22;49838;51.798;10.954;2023-04-25T19:14:12;13.30;30.20
64549;DHT22;49838;51.798;10.954;2023-04-25T19:16:40;13.30;30.10
64549;DHT22;49838;51.798;10.954;2023-04-25T19:19:07;13.30;30.10
64549;DHT22;49838;51.798;10.954;2023-04-25T19:21:38;13.30;30.10
64549;DHT22;49838;51.798;10.954;2023-04-25T19:24:06;13.30;30.10
64549;DHT22;49838;51.798;10.954;2023-04-25T19:26:35;13.40;30.20
64549;DHT22;49838;51.798;10.954;2023-04-25T19:29:04;13.30;30.10
64549;DHT22;49838;51.798;10.954;2023-04-25T19:31:40;13.30;30.20
64549;DHT22;49838;51.798;10.954;2023-04-25T19:34:08;13.30;32.40
64549;DHT22;49838;51.798;10.954;2023-04-25T19:36:36;13.10;32.10
64549;DHT22;49838;51.798;10.954;2023-04-25T19:39:08;13.10;31.50
64549;DHT22;49838;51.798;10.954;2023-04-25T19:41:37;13.00;31.30
64549;DHT22;49838;51.798;10.954;2023-04-25T19:44:09;13.00;31.20
64549;DHT22;49838;51.798;10.954;2023-04-25T19:46:37;13.00;31.30
64549;DHT22;49838;51.798;10.954;2023-04-25T19:49:10;13.00;31.20
64549;DHT22;49838;51.798;10.954;2023-04-25T19:51:38;12.90;31.20
64549;DHT22;49838;51.798;10.954;2023-04-25T19:54:08;12.90;31.20
64549;DHT22;49838;51.798;10.954;2023-04-25T19:56:37;12.90;31.30
64549;DHT22;49838;51.798;10.954;2023-04-25T19:59:04;12.90;31.20
64549;DHT22;49838;51.798;10.954;2023-04-25T20:01:32;12.90;31.20
64549;DHT22;49838;51.798;10.954;2023-04-25T20:04:00;13.00;31.30
64549;DHT22;49838;51.798;10.954;2023-04-25T20:06:28;12.90;31.10
64549;DHT22;49838;51.798;10.954;2023-04-25T20:08:55;12.90;31.00
64549;DHT22;49838;51.798;10.954;2023-04-25T20:11:23;12.90;31.00
64549;DHT22;49838;51.798;10.954;2023-04-25T20:13:54;12.90;31.00
64549;DHT22;49838;51.798;10.954;2023-04-25T20:16:22;12.90;31.00
64549;DHT22;49838;51.798;10.954;2023-04-25T20:18:49;12.80;30.90
64549;DHT22;49838;51.798;10.954;2023-04-25T20:21:17;12.70;30.80
64549;DHT22;49838;51.798;10.954;2023-04-25T20:23:48;12.70;30.90
64549;DHT22;49838;51.798;10.954;2023-04-25T20:26:15;12.70;30.90
64549;DHT22;49838;51.798;10.954;2023-04-25T20:28:43;12.60;30.90
64549;DHT22;49838;51.798;10.954;2023-04-25T20:31:13;12.60;30.90
64549;DHT22;49838;51.798;10.954;2023-04-25T20:33:43;12.50;30.70
64549;DHT22;49838;51.798;10.954;2023-04-25T20:36:11;12.50;30.70
64549;DHT22;49838;51.798;10.954;2023-04-25T20:38:40;12.50;30.70
64549;DHT22;49838;51.798;10.954;2023-04-25T20:41:09;12.50;30.70
64549;DHT22;49838;51.798;10.954;2023-04-25T20:43:37;12.50;30.70
64549;DHT22;49838;51.798;10.954;2023-04-25T20:46:05;12.40;30.70
64549;DHT22;49838;51.798;10.954;2023-04-25T20:48:34;12.40;30.70
64549;DHT22;49838;51.798;10.954;2023-04-25T20:51:04;12.40;30.70
64549;DHT22;49838;51.798;10.954;2023-04-25T20:53:32;12.40;30.60
64549;DHT22;49838;51.798;10.954;2023-04-25T20:56:02;12.40;30.60
64549;DHT22;49838;51.798;10.954;2023-04-25T20:58:31;12.40;30.60
64549;DHT22;49838;51.798;10.954;2023-04-25T21:00:59;12.30;30.60
64549;DHT22;49838;51.798;10.954;2023-04-25T21:03:26;12.30;30.60
64549;DHT22;49838;51.798;10.954;2023-04-25T21:05:57;12.40;30.80
64549;DHT22;49838;51.798;10.954;2023-04-25T21:08:25;12.40;30.70
64549;DHT22;49838;51.798;10.954;2023-04-25T21:10:52;12.40;30.70
64549;DHT22;49838;51.798;10.954;2023-04-25T21:13:19;12.40;30.70
64549;DHT22;49838;51.798;10.954;2023-04-25T21:15:47;12.30;30.60
64549;DHT22;49838;51.798;10.954;2023-04-25T21:18:14;12.40;30.70
64549;DHT22;49838;51.798;10.954;2023-04-25T21:20:42;12.30;30.70
64549;DHT22;49838;51.798;10.954;2023-04-25T21:23:11;12.30;30.60
64549;DHT22;49838;51.798;10.954;2023-04-25T21:25:40;12.30;30.60
64549;DHT22;49838;51.798;10.954;2023-04-25T21:28:07;12.30;30.60
64549;DHT22;49838;51.798;10.954;2023-04-25T21:30:37;12.20;30.50
64549;DHT22;49838;51.798;10.954;2023-04-25T21:33:04;12.20;30.60
64549;DHT22;49838;51.798;10.954;2023-04-25T21:35:32;12.10;30.60
64549;DHT22;49838;51.798;10.954;2023-04-25T21:37:59;12.10;30.60
64549;DHT22;49838;51.798;10.954;2023-04-25T21:40:27;12.10;30.60
64549;DHT22;49838;51.798;10.954;2023-04-25T21:42:55;12.00;30.60
64549;DHT22;49838;51.798;10.954;2023-04-25T21:45:22;12.00;30.60
64549;DHT22;49838;51.798;10.954;2023-04-25T21:47:49;12.10;30.70
64549;DHT22;49838;51.798;10.954;2023-04-25T21:50:17;12.10;30.70
64549;DHT22;49838;51.798;10.954;2023-04-25T21:52:44;12.10;30.70
64549;DHT22;49838;51.798;10.954;2023-04-25T21:55:13;12.10;30.70
64549;DHT22;49838;51.798;10.954;2023-04-25T21:57:42;12.10;30.80
64549;DHT22;49838;51.798;10.954;2023-04-25T22:00:10;12.20;30.80
64549;DHT22;49838;51.798;10.954;2023-04-25T22:02:46;12.30;30.80
64549;DHT22;49838;51.798;10.954;2023-04-25T22:05:17;12.30;30.70
64549;DHT22;49838;51.798;10.954;2023-04-25T22:07:47;12.30;30.70
64549;DHT22;49838;51.798;10.954;2023-04-25T22:10:15;12.40;30.70
64549;DHT22;49838;51.798;10.954;2023-04-25T22:12:44;12.40;30.70
64549;DHT22;49838;51.798;10.954;2023-04-25T22:15:15;12.50;30.70
64549;DHT22;49838;51.798;10.954;2023-04-25T22:17:44;12.50;30.70
64549;DHT22;49838;51.798;10.954;2023-04-25T22:20:12;12.50;30.80
64549;DHT22;49838;51.798;10.954;2023-04-25T22:22:40;12.50;31.00
64549;DHT22;49838;51.798;10.954;2023-04-25T22:25:07;12.50;30.80
64549;DHT22;49838;51.798;10.954;2023-04-25T22:27:36;12.40;30.90
64549;DHT22;49838;51.798;10.954;2023-04-25T22:30:07;12.30;31.00
64549;DHT22;49838;51.798;10.954;2023-04-25T22:32:37;12.30;31.00
64549;DHT22;49838;51.798;10.954;2023-04-25T22:35:05;12.30;31.00
64549;DHT22;49838;51.798;10.954;2023-04-25T22:37:33;12.30;31.30
64549;DHT22;49838;51.798;10.954;2023-04-25T22:40:01;12.30;31.30
64549;DHT22;49838;51.798;10.954;2023-04-25T22:42:35;12.20;31.20
64549;DHT22;49838;51.798;10.954;2023-04-25T22:45:03;12.20;31.30
64549;DHT22;49838;51.798;10.954;2023-04-25T22:47:34;12.10;31.30
64549;DHT22;49838;51.798;10.954;2023-04-25T22:50:02;12.10;31.30
64549;DHT22;49838;51.798;10.954;2023-04-25T22:52:32;12.00;31.20
64549;DHT22;49838;51.798;10.954;2023-04-25T22:55:00;12.00;31.20
64549;DHT22;49838;51.798;10.954;2023-04-25T22:57:29;11.90;31.10
64549;DHT22;49838;51.798;10.954;2023-04-25T22:59:56;11.90;31.10
64549;DHT22;49838;51.798;10.954;2023-04-25T23:02:24;11.90;31.00
64549;DHT22;49838;51.798;10.954;2023-04-25T23:04:53;11.80;31.00
64549;DHT22;49838;51.798;10.954;2023-04-25T23:07:20;11.80;30.90
64549;DHT22;49838;51.798;10.954;2023-04-25T23:09:48;11.80;30.90
64549;DHT22;49838;51.798;10.954;2023-04-25T23:12:16;11.80;30.80
64549;DHT22;49838;51.798;10.954;2023-04-25T23:14:43;11.80;30.80
64549;DHT22;49838;51.798;10.954;2023-04-25T23:17:15;11.70;30.70
64549;DHT22;49838;51.798;10.954;2023-04-25T23:19:42;11.70;30.70
64549;DHT22;49838;51.798;10.954;2023-04-25T23:22:11;11.70;30.70
64549;DHT22;49838;51.798;10.954;2023-04-25T23:24:39;11.70;30.70
64549;DHT22;49838;51.798;10.954;2023-04-25T23:27:06;11.70;30.60
64549;DHT22;49838;51.798;10.954;2023-04-25T23:29:33;11.70;30.60
64549;DHT22;49838;51.798;10.954;2023-04-25T23:32:01;11.60;30.50
64549;DHT22;49838;51.798;10.954;2023-04-25T23:34:28;11.60;30.40
64549;DHT22;49838;51.798;10.954;2023-04-25T23:36:56;11.60;30.40
64549;DHT22;49838;51.798;10.954;2023-04-25T23:39:27;11.60;30.40
64549;DHT22;49838;51.798;10.954;2023-04-25T23:41:54;11.60;30.50
64549;DHT22;49838;51.798;10.954;2023-04-25T23:44:22;11.50;30.40
64549;DHT22;49838;51.798;10.954;2023-04-25T23:46:50;11.50;30.40
64549;DHT22;49838;51.798;10.954;2023-04-25T23:49:17;11.50;30.40
64549;DHT22;49838;51.798;10.954;2023-04-25T23:51:44;11.40;30.30
64549;DHT22;49838;51.798;10.954;2023-04-25T23:54:12;11.40;30.20
64549;DHT22;49838;51.798;10.954;2023-04-25T23:56:41;11.40;30.20
64549;DHT22;49838;51.798;10.954;2023-04-25T23:59:09;11.40;30.30
